createdAt,value
2022-09-17T00:04:12.301Z,10.91
2022-09-17T00:09:34.111Z,10.93
2022-09-17T00:14:55.985Z,11.13
2022-09-17T00:20:17.891Z,11.19
2022-09-17T00:25:44.161Z,11.38
2022-09-17T00:31:09.951Z,11.31
2022-09-17T00:36:34.085Z,11.17
2022-09-17T00:41:55.876Z,11.17
2022-09-17T00:47:33.325Z,11.14
2022-09-17T00:53:20.980Z,11.10
2022-09-17T00:58:43.138Z,11.13
2022-09-17T01:04:04.996Z,11.17
2022-09-17T01:09:51.418Z,11.05
2022-09-17T01:15:28.446Z,11.06
2022-09-17T01:20:59.342Z,11.10
2022-09-17T01:26:53.533Z,10.99
2022-09-17T01:32:41.930Z,11.04
2022-09-17T01:38:31.852Z,11.03
2022-09-17T01:44:03.978Z,11.04
2022-09-17T01:49:25.756Z,10.91
2022-09-17T01:54:51.788Z,10.88
2022-09-17T02:00:14.957Z,10.78
2022-09-17T02:05:45.345Z,10.63
2022-09-17T02:11:13.065Z,10.62
2022-09-17T02:16:37.537Z,10.58
2022-09-17T02:22:23.613Z,10.37
2022-09-17T02:28:07.413Z,10.32
2022-09-17T02:33:31.945Z,10.29
2022-09-17T02:39:01.088Z,10.21
2022-09-17T02:44:47.655Z,10.09
2022-09-17T02:50:24.847Z,9.81
2022-09-17T02:55:53.830Z,9.99
2022-09-17T03:01:28.591Z,10.03
2022-09-17T03:06:52.221Z,9.95
2022-09-17T03:12:14.781Z,9.95
2022-09-17T03:17:37.349Z,9.89
2022-09-17T03:22:59.103Z,9.88
2022-09-17T03:28:21.197Z,9.83
2022-09-17T03:33:42.998Z,9.69
2022-09-17T03:39:04.992Z,9.60
2022-09-17T03:44:26.798Z,9.61
2022-09-17T03:49:48.582Z,9.53
2022-09-17T03:55:10.550Z,9.55
2022-09-17T04:00:32.646Z,9.40
2022-09-17T04:05:54.780Z,9.39
2022-09-17T04:11:16.628Z,9.46
2022-09-17T04:16:38.468Z,9.53
2022-09-17T04:22:00.381Z,9.68
2022-09-17T04:27:22.166Z,9.78
2022-09-17T04:32:45.173Z,10.03
2022-09-17T04:38:07.005Z,11.32
2022-09-17T04:43:28.922Z,13.12
2022-09-17T04:48:50.706Z,16.45
2022-09-17T04:54:12.522Z,19.01
2022-09-17T04:59:34.437Z,21.41
2022-09-17T05:04:56.231Z,24.01
2022-09-17T05:10:20.296Z,23.61
2022-09-17T05:15:42.103Z,26.48
2022-09-17T05:21:04.173Z,25.66
2022-09-17T05:26:25.929Z,25.26
2022-09-17T05:31:47.829Z,25.27
2022-09-17T05:37:10.749Z,22.05
2022-09-17T05:42:32.764Z,20.53
2022-09-17T05:47:58.658Z,21.34
2022-09-17T05:53:20.453Z,21.82
2022-09-17T05:58:42.275Z,24.24
2022-09-17T06:04:04.075Z,27.96
2022-09-17T06:09:25.874Z,29.96
2022-09-17T06:14:47.794Z,28.72
2022-09-17T06:20:09.923Z,30.74
2022-09-17T06:25:31.693Z,32.06
2022-09-17T06:30:53.999Z,33.47
2022-09-17T06:36:15.873Z,33.95
2022-09-17T06:41:41.657Z,35.16
2022-09-17T06:47:03.664Z,34.42
2022-09-17T06:52:25.441Z,31.99
2022-09-17T06:57:47.589Z,33.16
2022-09-17T07:03:10.067Z,28.58
2022-09-17T07:08:32.667Z,28.44
2022-09-17T07:13:54.447Z,23.05
2022-09-17T07:19:16.203Z,21.24
2022-09-17T07:24:38.023Z,18.82
2022-09-17T07:30:00.011Z,17.43
2022-09-17T07:35:21.842Z,16.39
2022-09-17T07:40:43.597Z,15.65
2022-09-17T07:46:06.640Z,15.20
2022-09-17T07:51:28.777Z,14.64
2022-09-17T07:56:51.684Z,14.56
2022-09-17T08:02:13.745Z,14.77
2022-09-17T08:07:35.652Z,14.53
2022-09-17T08:12:58.312Z,14.11
2022-09-17T08:18:20.324Z,14.15
2022-09-17T08:23:44.006Z,13.76
2022-09-17T08:29:05.956Z,13.67
2022-09-17T08:34:27.842Z,13.66
2022-09-17T08:39:49.676Z,13.67
2022-09-17T08:45:21.053Z,13.88
2022-09-17T08:50:42.855Z,13.96
2022-09-17T08:56:13.075Z,14.74
2022-09-17T09:01:42.585Z,14.91
2022-09-17T09:07:23.704Z,15.43
2022-09-17T09:12:45.801Z,15.95
2022-09-17T09:18:22.692Z,16.26
2022-09-17T09:23:54.802Z,16.55
2022-09-17T09:29:37.982Z,16.32
2022-09-17T09:35:12.305Z,15.74
2022-09-17T09:40:57.335Z,15.21
2022-09-17T09:46:37.734Z,16.16
2022-09-17T09:52:11.434Z,16.11
2022-09-17T09:57:43.217Z,16.44
2022-09-17T10:03:15.599Z,16.62
2022-09-17T10:08:40.082Z,15.75
2022-09-17T10:14:27.475Z,15.00
2022-09-17T10:20:04.512Z,14.87
2022-09-17T10:25:33.886Z,15.03
2022-09-17T10:30:57.874Z,15.28
2022-09-17T10:36:41.388Z,15.22
2022-09-17T10:42:13.886Z,15.27
2022-09-17T10:47:42.284Z,15.06
2022-09-17T10:53:06.953Z,14.49
2022-09-17T10:58:46.776Z,14.61
2022-09-17T11:04:27.117Z,15.20
2022-09-17T11:09:58.571Z,14.98
2022-09-17T11:15:26.325Z,15.12
2022-09-17T11:21:19.175Z,15.12
2022-09-17T11:26:52.197Z,14.99
2022-09-17T11:32:32.859Z,15.75
2022-09-17T11:38:03.845Z,16.18
2022-09-17T11:43:29.326Z,16.23
2022-09-17T11:49:20.528Z,15.89
2022-09-17T11:55:01.221Z,15.88
2022-09-17T12:00:23.114Z,16.51
2022-09-17T12:06:02.494Z,16.87
2022-09-17T12:11:59.258Z,16.86
2022-09-17T12:17:36.873Z,16.55
2022-09-17T12:23:02.542Z,16.34
2022-09-17T12:28:46.532Z,15.94
2022-09-17T12:34:28.565Z,15.78
2022-09-17T12:40:05.619Z,15.86
2022-09-17T12:45:33.198Z,16.05
2022-09-17T12:51:04.355Z,15.86
2022-09-17T12:56:52.377Z,15.74
2022-09-17T13:02:27.412Z,16.79
2022-09-17T13:08:11.036Z,16.57
2022-09-17T13:14:20.344Z,16.13
2022-09-17T13:19:50.768Z,16.19
2022-09-17T13:25:15.484Z,15.92
2022-09-17T13:30:59.224Z,16.06
2022-09-17T13:36:33.322Z,16.10
2022-09-17T13:42:04.421Z,16.16
2022-09-17T13:47:30.606Z,15.71
2022-09-17T13:52:54.081Z,15.77
2022-09-17T13:58:18.568Z,15.71
2022-09-17T14:03:40.279Z,15.75
2022-09-17T14:09:39.190Z,15.44
2022-09-17T14:15:01.280Z,15.52
2022-09-17T14:20:24.387Z,15.26
2022-09-17T14:25:54.968Z,15.41
2022-09-17T14:31:20.828Z,15.67
2022-09-17T14:36:43.006Z,15.82
2022-09-17T14:42:07.219Z,15.76
2022-09-17T14:47:29.045Z,15.96
2022-09-17T14:52:52.679Z,16.12
2022-09-17T14:58:37.507Z,15.64
2022-09-17T15:04:14.912Z,15.65
2022-09-17T15:09:36.691Z,15.95
2022-09-17T15:14:58.702Z,16.19
2022-09-17T15:20:28.479Z,16.37
2022-09-17T15:25:54.916Z,16.14
2022-09-17T15:31:20.331Z,16.05
2022-09-17T15:37:06.163Z,15.76
2022-09-17T15:42:30.830Z,15.57
2022-09-17T15:48:24.198Z,15.34
2022-09-17T15:53:58.545Z,15.37
2022-09-17T15:59:38.183Z,15.22
2022-09-17T16:05:18.311Z,15.22
2022-09-17T16:10:40.084Z,15.19
2022-09-17T16:16:02.185Z,15.19
2022-09-17T16:21:24.027Z,15.04
2022-09-17T16:26:45.907Z,14.87
2022-09-17T16:32:10.599Z,14.80
2022-09-17T16:37:32.401Z,14.75
2022-09-17T16:42:54.352Z,14.52
2022-09-17T16:48:16.108Z,14.43
2022-09-17T16:53:38.661Z,14.33
2022-09-17T16:59:00.520Z,13.97
2022-09-17T17:04:22.330Z,13.90
2022-09-17T17:09:44.100Z,13.72
2022-09-17T17:15:06.671Z,13.62
2022-09-17T17:20:28.610Z,13.48
2022-09-17T17:25:50.381Z,13.38
2022-09-17T17:31:12.280Z,13.27
2022-09-17T17:36:34.329Z,13.14
2022-09-17T17:41:56.095Z,13.05
2022-09-17T17:47:18.078Z,12.96
2022-09-17T17:52:39.871Z,12.86
2022-09-17T17:58:01.940Z,12.75
2022-09-17T18:03:24.487Z,12.75
2022-09-17T18:08:46.339Z,12.75
2022-09-17T18:14:12.486Z,12.78
2022-09-17T18:19:34.294Z,12.72
2022-09-17T18:24:56.108Z,12.63
2022-09-17T18:30:17.871Z,12.61
2022-09-17T18:35:39.770Z,12.51
2022-09-17T18:41:11.243Z,12.44
2022-09-17T18:46:33.264Z,12.40
2022-09-17T18:51:55.393Z,12.35
2022-09-17T18:57:17.309Z,12.28
2022-09-17T19:02:39.124Z,12.26
2022-09-17T19:08:01.035Z,12.12
2022-09-17T19:13:22.880Z,12.12
2022-09-17T19:18:45.127Z,12.06
2022-09-17T19:24:07.206Z,11.96
2022-09-17T19:29:30.540Z,11.89
2022-09-17T19:34:52.468Z,11.85
2022-09-17T19:40:14.650Z,11.73
2022-09-17T19:45:36.601Z,11.78
2022-09-17T19:50:58.817Z,11.81
2022-09-17T19:56:23.432Z,11.78
2022-09-17T20:01:49.331Z,11.78
2022-09-17T20:07:11.460Z,11.68
2022-09-17T20:12:33.217Z,11.71
2022-09-17T20:17:55.327Z,11.73
2022-09-17T20:23:17.118Z,11.74
2022-09-17T20:28:39.270Z,11.73
2022-09-17T20:34:02.460Z,11.74
2022-09-17T20:39:24.789Z,11.69
2022-09-17T20:44:47.388Z,11.70
2022-09-17T20:50:09.534Z,11.74
2022-09-17T20:55:31.429Z,11.70
2022-09-17T21:00:53.776Z,11.74
2022-09-17T21:06:23.234Z,11.75
2022-09-17T21:11:46.684Z,11.76
2022-09-17T21:17:08.561Z,11.80
2022-09-17T21:22:30.559Z,11.77
2022-09-17T21:27:52.367Z,11.82
2022-09-17T21:33:15.212Z,11.86
2022-09-17T21:38:37.035Z,11.79
2022-09-17T21:43:59.185Z,11.78
2022-09-17T21:49:21.000Z,11.75
2022-09-17T21:54:42.878Z,11.78
2022-09-17T22:00:07.343Z,11.82
2022-09-17T22:05:29.193Z,11.70
2022-09-17T22:10:50.971Z,11.72
2022-09-17T22:16:12.870Z,11.76
2022-09-17T22:21:37.744Z,11.72
2022-09-17T22:26:59.530Z,11.67
2022-09-17T22:32:21.327Z,11.67
2022-09-17T22:37:43.115Z,11.59
2022-09-17T22:43:04.936Z,11.59
2022-09-17T22:48:26.869Z,11.54
2022-09-17T22:53:48.659Z,11.58
2022-09-17T22:59:11.159Z,11.59
2022-09-17T23:04:33.013Z,11.50
2022-09-17T23:09:54.804Z,11.49
2022-09-17T23:15:16.601Z,11.42
2022-09-17T23:20:38.415Z,11.46
2022-09-17T23:26:05.663Z,11.49
2022-09-17T23:31:28.992Z,11.44
2022-09-17T23:36:50.887Z,11.44
2022-09-17T23:42:12.675Z,11.44
2022-09-17T23:47:34.589Z,11.45
2022-09-17T23:52:56.385Z,11.40
2022-09-17T23:58:18.641Z,11.43
